sensor_id;sensor_type;location;lat;lon;timestamp;pressure;altitude;pressure_sealevel;temperature
68440;BMP180;55421;51.600;5.718;2022-12-07T00:01:38;229958.59;;;3.54
68440;BMP180;55421;51.600;5.718;2022-12-07T00:04:09;229252.80;;;3.50
68440;BMP180;55421;51.600;5.718;2022-12-07T00:06:39;230903.00;;;3.50
68440;BMP180;55421;51.600;5.718;2022-12-07T00:09:11;232573.20;;;3.50
68440;BMP180;55421;51.600;5.718;2022-12-07T00:11:39;228866.00;;;3.40
68440;BMP180;55421;51.600;5.718;2022-12-07T00:14:11;224956.20;;;3.32
68440;BMP180;55421;51.600;5.718;2022-12-07T00:16:39;223496.41;;;3.30
68440;BMP180;55421;51.600;5.718;2022-12-07T00:19:05;221534.59;;;3.30
68440;BMP180;55421;51.600;5.718;2022-12-07T00:21:35;221898.00;;;3.24
68440;BMP180;55421;51.600;5.718;2022-12-07T00:24:04;221589.59;;;3.26
68440;BMP180;55421;51.600;5.718;2022-12-07T00:26:37;220841.00;;;3.30
68440;BMP180;55421;51.600;5.718;2022-12-07T00:29:24;218821.59;;;3.20
68440;BMP180;55421;51.600;5.718;2022-12-07T00:31:51;217816.20;;;3.20
68440;BMP180;55421;51.600;5.718;2022-12-07T00:34:20;225298.00;;;3.20
68440;BMP180;55421;51.600;5.718;2022-12-07T00:36:49;229999.20;;;3.18
68440;BMP180;55421;51.600;5.718;2022-12-07T00:39:15;230926.00;;;3.10
68440;BMP180;55421;51.600;5.718;2022-12-07T00:41:42;232663.00;;;3.10
68440;BMP180;55421;51.600;5.718;2022-12-07T00:44:09;185643.41;;;3.10
68440;BMP180;55421;51.600;5.718;2022-12-07T00:46:35;187469.80;;;3.12
68440;BMP180;55421;51.600;5.718;2022-12-07T00:49:03;187440.20;;;3.20
68440;BMP180;55421;51.600;5.718;2022-12-07T00:51:29;141401.41;;;3.20
68440;BMP180;55421;51.600;5.718;2022-12-07T00:53:56;144191.80;;;3.18
68440;BMP180;55421;51.600;5.718;2022-12-07T00:56:26;143007.59;;;3.10
68440;BMP180;55421;51.600;5.718;2022-12-07T00:59:01;185850.59;;;3.10
68440;BMP180;55421;51.600;5.718;2022-12-07T01:01:32;184149.41;;;3.10
68440;BMP180;55421;51.600;5.718;2022-12-07T01:03:59;231946.20;;;3.10
68440;BMP180;55421;51.600;5.718;2022-12-07T01:06:28;232050.59;;;3.10
68440;BMP180;55421;51.600;5.718;2022-12-07T01:08:55;233063.00;;;3.20
68440;BMP180;55421;51.600;5.718;2022-12-07T01:11:26;233107.41;;;3.20
68440;BMP180;55421;51.600;5.718;2022-12-07T01:13:56;189257.80;;;3.20
68440;BMP180;55421;51.600;5.718;2022-12-07T01:16:26;187040.00;;;3.20
68440;BMP180;55421;51.600;5.718;2022-12-07T01:18:56;188308.20;;;3.20
68440;BMP180;55421;51.600;5.718;2022-12-07T01:21:30;189433.59;;;3.20
68440;BMP180;55421;51.600;5.718;2022-12-07T01:24:02;190423.41;;;3.20
68440;BMP180;55421;51.600;5.718;2022-12-07T01:26:28;142803.41;;;3.26
68440;BMP180;55421;51.600;5.718;2022-12-07T01:28:55;142302.00;;;3.22
68440;BMP180;55421;51.600;5.718;2022-12-07T01:31:24;188548.59;;;3.20
68440;BMP180;55421;51.600;5.718;2022-12-07T01:33:55;186709.20;;;3.10
68440;BMP180;55421;51.600;5.718;2022-12-07T01:36:26;188377.20;;;3.10
68440;BMP180;55421;51.600;5.718;2022-12-07T01:39:00;187040.20;;;3.00
68440;BMP180;55421;51.600;5.718;2022-12-07T01:41:32;232066.80;;;3.00
68440;BMP180;55421;51.600;5.718;2022-12-07T01:44:25;229466.41;;;2.98
68440;BMP180;55421;51.600;5.718;2022-12-07T01:46:56;227807.41;;;2.96
68440;BMP180;55421;51.600;5.718;2022-12-07T01:49:38;230862.41;;;2.92
68440;BMP180;55421;51.600;5.718;2022-12-07T01:52:30;231312.80;;;2.90
68440;BMP180;55421;51.600;5.718;2022-12-07T01:55:03;187685.80;;;2.90
68440;BMP180;55421;51.600;5.718;2022-12-07T01:57:34;184545.59;;;2.90
68440;BMP180;55421;51.600;5.718;2022-12-07T02:00:06;231876.59;;;2.84
68440;BMP180;55421;51.600;5.718;2022-12-07T02:02:37;230038.00;;;2.82
68440;BMP180;55421;51.600;5.718;2022-12-07T02:05:06;228529.59;;;2.90
68440;BMP180;55421;51.600;5.718;2022-12-07T02:07:37;229306.80;;;2.84
68440;BMP180;55421;51.600;5.718;2022-12-07T02:10:24;227128.00;;;2.86
68440;BMP180;55421;51.600;5.718;2022-12-07T02:13:28;230312.41;;;2.88
68440;BMP180;55421;51.600;5.718;2022-12-07T02:16:24;186667.80;;;2.80
68440;BMP180;55421;51.600;5.718;2022-12-07T02:28:33;185940.80;;;2.70
68440;BMP180;55421;51.600;5.718;2022-12-07T02:31:13;183975.80;;;2.70
68440;BMP180;55421;51.600;5.718;2022-12-07T02:34:08;185142.59;;;2.70
68440;BMP180;55421;51.600;5.718;2022-12-07T02:36:43;186196.00;;;2.70
68440;BMP180;55421;51.600;5.718;2022-12-07T02:39:31;188474.80;;;2.60
68440;BMP180;55421;51.600;5.718;2022-12-07T02:42:23;188662.41;;;2.60
68440;BMP180;55421;51.600;5.718;2022-12-07T02:44:52;189184.20;;;2.54
68440;BMP180;55421;51.600;5.718;2022-12-07T02:47:21;186510.59;;;2.50
68440;BMP180;55421;51.600;5.718;2022-12-07T02:49:50;187280.00;;;2.50
68440;BMP180;55421;51.600;5.718;2022-12-07T02:52:17;186084.59;;;2.50
68440;BMP180;55421;51.600;5.718;2022-12-07T02:54:44;188006.00;;;2.50
68440;BMP180;55421;51.600;5.718;2022-12-07T03:00:16;188469.20;;;2.40
68440;BMP180;55421;51.600;5.718;2022-12-07T03:03:00;189619.00;;;2.40
68440;BMP180;55421;51.600;5.718;2022-12-07T03:09:11;187774.00;;;2.34
68440;BMP180;55421;51.600;5.718;2022-12-07T03:12:10;188773.41;;;2.34
68440;BMP180;55421;51.600;5.718;2022-12-07T03:14:48;145091.41;;;2.36
68440;BMP180;55421;51.600;5.718;2022-12-07T03:17:23;145138.80;;;2.30
68440;BMP180;55421;51.600;5.718;2022-12-07T03:19:56;12539.20;;;2.30
68440;BMP180;55421;51.600;5.718;2022-12-07T03:22:28;24392.40;;;2.30
68440;BMP180;55421;51.600;5.718;2022-12-07T03:25:01;32600.40;;;2.30
68440;BMP180;55421;51.600;5.718;2022-12-07T03:27:36;35239.00;;;2.30
68440;BMP180;55421;51.600;5.718;2022-12-07T03:30:13;39929.00;;;2.36
68440;BMP180;55421;51.600;5.718;2022-12-07T03:33:15;42612.80;;;2.40
68440;BMP180;55421;51.600;5.718;2022-12-07T03:35:53;42552.60;;;2.40
68440;BMP180;55421;51.600;5.718;2022-12-07T03:38:37;42209.20;;;2.40
68440;BMP180;55421;51.600;5.718;2022-12-07T03:41:22;41485.40;;;2.40
68440;BMP180;55421;51.600;5.718;2022-12-07T03:43:50;40155.60;;;2.40
68440;BMP180;55421;51.600;5.718;2022-12-07T03:46:43;38469.60;;;2.40
68440;BMP180;55421;51.600;5.718;2022-12-07T03:49:51;44211.00;;;2.40
68440;BMP180;55421;51.600;5.718;2022-12-07T03:52:30;47684.00;;;2.50
68440;BMP180;55421;51.600;5.718;2022-12-07T03:55:26;47527.20;;;2.50
68440;BMP180;55421;51.600;5.718;2022-12-07T03:57:59;46153.40;;;2.50
68440;BMP180;55421;51.600;5.718;2022-12-07T04:00:28;48412.00;;;2.54
68440;BMP180;55421;51.600;5.718;2022-12-07T04:02:55;49199.00;;;2.58
68440;BMP180;55421;51.600;5.718;2022-12-07T04:05:23;49014.80;;;2.60
68440;BMP180;55421;51.600;5.718;2022-12-07T04:07:50;44630.80;;;2.60
68440;BMP180;55421;51.600;5.718;2022-12-07T04:10:17;45928.60;;;2.60
68440;BMP180;55421;51.600;5.718;2022-12-07T04:12:44;47538.20;;;2.70
68440;BMP180;55421;51.600;5.718;2022-12-07T04:15:11;52996.00;;;2.70
68440;BMP180;55421;51.600;5.718;2022-12-07T04:17:38;53499.40;;;2.78
68440;BMP180;55421;51.600;5.718;2022-12-07T04:20:06;51929.00;;;2.80
68440;BMP180;55421;51.600;5.718;2022-12-07T04:22:33;55189.20;;;2.80
68440;BMP180;55421;51.600;5.718;2022-12-07T04:25:00;54756.80;;;2.80
68440;BMP180;55421;51.600;5.718;2022-12-07T04:27:26;55981.00;;;2.80
68440;BMP180;55421;51.600;5.718;2022-12-07T04:29:53;59823.00;;;2.80
68440;BMP180;55421;51.600;5.718;2022-12-07T04:32:19;58532.60;;;2.80
68440;BMP180;55421;51.600;5.718;2022-12-07T04:34:46;59000.40;;;2.80
68440;BMP180;55421;51.600;5.718;2022-12-07T04:37:12;55913.20;;;2.80
68440;BMP180;55421;51.600;5.718;2022-12-07T04:39:39;55954.40;;;2.80
68440;BMP180;55421;51.600;5.718;2022-12-07T04:42:06;58180.60;;;2.80
68440;BMP180;55421;51.600;5.718;2022-12-07T04:44:32;56253.80;;;2.80
68440;BMP180;55421;51.600;5.718;2022-12-07T04:46:59;61025.00;;;2.80
68440;BMP180;55421;51.600;5.718;2022-12-07T04:49:26;61927.00;;;2.90
68440;BMP180;55421;51.600;5.718;2022-12-07T04:51:52;65518.60;;;2.94
68440;BMP180;55421;51.600;5.718;2022-12-07T04:54:19;61990.40;;;3.00
68440;BMP180;55421;51.600;5.718;2022-12-07T04:56:46;61385.40;;;2.98
68440;BMP180;55421;51.600;5.718;2022-12-07T04:59:15;62662.00;;;2.94
68440;BMP180;55421;51.600;5.718;2022-12-07T05:01:42;61433.00;;;2.90
68440;BMP180;55421;51.600;5.718;2022-12-07T05:04:09;60953.40;;;2.90
68440;BMP180;55421;51.600;5.718;2022-12-07T05:06:36;58490.20;;;2.90
68440;BMP180;55421;51.600;5.718;2022-12-07T05:09:04;56726.80;;;2.90
68440;BMP180;55421;51.600;5.718;2022-12-07T05:11:30;56404.40;;;2.90
68440;BMP180;55421;51.600;5.718;2022-12-07T05:14:13;56329.20;;;2.82
68440;BMP180;55421;51.600;5.718;2022-12-07T05:16:42;57104.60;;;2.80
68440;BMP180;55421;51.600;5.718;2022-12-07T05:19:10;51832.40;;;2.80
68440;BMP180;55421;51.600;5.718;2022-12-07T05:21:37;48108.20;;;2.70
68440;BMP180;55421;51.600;5.718;2022-12-07T05:24:06;53378.40;;;2.60
68440;BMP180;55421;51.600;5.718;2022-12-07T05:26:33;56826.40;;;2.60
68440;BMP180;55421;51.600;5.718;2022-12-07T05:29:00;56356.80;;;2.66
68440;BMP180;55421;51.600;5.718;2022-12-07T05:31:27;54789.20;;;2.60
68440;BMP180;55421;51.600;5.718;2022-12-07T05:33:54;52349.60;;;2.60
68440;BMP180;55421;51.600;5.718;2022-12-07T05:36:22;49176.00;;;2.60
68440;BMP180;55421;51.600;5.718;2022-12-07T05:38:49;50028.00;;;2.50
68440;BMP180;55421;51.600;5.718;2022-12-07T05:41:18;47746.60;;;2.50
68440;BMP180;55421;51.600;5.718;2022-12-07T05:44:04;43860.00;;;2.44
68440;BMP180;55421;51.600;5.718;2022-12-07T05:46:32;43855.20;;;2.42
68440;BMP180;55421;51.600;5.718;2022-12-07T05:48:59;43334.60;;;2.48
68440;BMP180;55421;51.600;5.718;2022-12-07T05:51:26;44349.80;;;2.50
68440;BMP180;55421;51.600;5.718;2022-12-07T05:53:52;43287.40;;;2.40
68440;BMP180;55421;51.600;5.718;2022-12-07T05:56:19;45807.60;;;2.40
68440;BMP180;55421;51.600;5.718;2022-12-07T05:58:45;49266.00;;;2.40
68440;BMP180;55421;51.600;5.718;2022-12-07T06:01:31;51270.60;;;2.40
68440;BMP180;55421;51.600;5.718;2022-12-07T06:03:58;47346.00;;;2.30
68440;BMP180;55421;51.600;5.718;2022-12-07T06:06:24;49229.20;;;2.30
68440;BMP180;55421;51.600;5.718;2022-12-07T06:08:51;44578.60;;;2.40
68440;BMP180;55421;51.600;5.718;2022-12-07T06:11:17;43545.80;;;2.40
68440;BMP180;55421;51.600;5.718;2022-12-07T06:14:03;42895.20;;;2.40
68440;BMP180;55421;51.600;5.718;2022-12-07T06:16:29;45761.20;;;2.40
68440;BMP180;55421;51.600;5.718;2022-12-07T06:18:56;48946.60;;;2.32
68440;BMP180;55421;51.600;5.718;2022-12-07T06:21:22;47145.20;;;2.30
68440;BMP180;55421;51.600;5.718;2022-12-07T06:23:49;51972.20;;;2.30
68440;BMP180;55421;51.600;5.718;2022-12-07T06:26:16;46374.80;;;2.22
68440;BMP180;55421;51.600;5.718;2022-12-07T06:28:42;48262.20;;;2.28
68440;BMP180;55421;51.600;5.718;2022-12-07T06:31:09;49824.40;;;2.26
68440;BMP180;55421;51.600;5.718;2022-12-07T06:33:36;51961.80;;;2.24
68440;BMP180;55421;51.600;5.718;2022-12-07T06:36:03;47852.00;;;2.20
68440;BMP180;55421;51.600;5.718;2022-12-07T06:38:29;43567.20;;;2.20
68440;BMP180;55421;51.600;5.718;2022-12-07T06:40:56;37087.00;;;2.10
68440;BMP180;55421;51.600;5.718;2022-12-07T06:43:22;32986.20;;;2.02
68440;BMP180;55421;51.600;5.718;2022-12-07T06:45:49;27504.80;;;2.00
68440;BMP180;55421;51.600;5.718;2022-12-07T06:48:15;32010.80;;;2.00
68440;BMP180;55421;51.600;5.718;2022-12-07T06:50:47;30507.40;;;2.00
68440;BMP180;55421;51.600;5.718;2022-12-07T06:53:14;32432.80;;;2.00
68440;BMP180;55421;51.600;5.718;2022-12-07T06:55:42;30239.20;;;2.00
68440;BMP180;55421;51.600;5.718;2022-12-07T06:58:08;26674.80;;;1.90
68440;BMP180;55421;51.600;5.718;2022-12-07T07:00:35;25387.60;;;1.90
68440;BMP180;55421;51.600;5.718;2022-12-07T07:03:02;25894.60;;;1.88
68440;BMP180;55421;51.600;5.718;2022-12-07T07:05:28;25769.60;;;1.80
68440;BMP180;55421;51.600;5.718;2022-12-07T07:07:55;23636.20;;;1.80
68440;BMP180;55421;51.600;5.718;2022-12-07T07:10:21;26428.20;;;1.84
68440;BMP180;55421;51.600;5.718;2022-12-07T07:12:48;26506.40;;;1.90
68440;BMP180;55421;51.600;5.718;2022-12-07T07:15:14;27207.60;;;1.90
68440;BMP180;55421;51.600;5.718;2022-12-07T07:17:41;26662.40;;;1.90
68440;BMP180;55421;51.600;5.718;2022-12-07T07:20:09;28852.60;;;1.88
68440;BMP180;55421;51.600;5.718;2022-12-07T07:22:35;31377.80;;;1.80
68440;BMP180;55421;51.600;5.718;2022-12-07T07:25:03;30827.60;;;1.80
68440;BMP180;55421;51.600;5.718;2022-12-07T07:27:29;228304.59;;;1.80
68440;BMP180;55421;51.600;5.718;2022-12-07T07:29:56;223010.20;;;1.80
68440;BMP180;55421;51.600;5.718;2022-12-07T07:32:22;219713.41;;;1.84
68440;BMP180;55421;51.600;5.718;2022-12-07T07:34:49;218108.59;;;1.90
68440;BMP180;55421;51.600;5.718;2022-12-07T07:37:16;219183.20;;;1.90
68440;BMP180;55421;51.600;5.718;2022-12-07T07:39:42;217857.80;;;1.90
68440;BMP180;55421;51.600;5.718;2022-12-07T07:42:09;217598.59;;;1.90
68440;BMP180;55421;51.600;5.718;2022-12-07T07:44:35;222061.59;;;1.86
68440;BMP180;55421;51.600;5.718;2022-12-07T07:47:02;219288.41;;;1.90
68440;BMP180;55421;51.600;5.718;2022-12-07T07:49:29;220169.80;;;1.90
68440;BMP180;55421;51.600;5.718;2022-12-07T07:51:56;218594.41;;;1.90
68440;BMP180;55421;51.600;5.718;2022-12-07T07:54:22;222093.80;;;1.90
68440;BMP180;55421;51.600;5.718;2022-12-07T07:56:49;219207.41;;;1.90
68440;BMP180;55421;51.600;5.718;2022-12-07T07:59:15;219721.59;;;1.96
68440;BMP180;55421;51.600;5.718;2022-12-07T08:01:42;219400.59;;;2.00
68440;BMP180;55421;51.600;5.718;2022-12-07T08:04:08;225705.00;;;2.00
68440;BMP180;55421;51.600;5.718;2022-12-07T08:06:35;223798.00;;;2.00
68440;BMP180;55421;51.600;5.718;2022-12-07T08:09:02;220956.41;;;2.00
68440;BMP180;55421;51.600;5.718;2022-12-07T08:11:31;223048.00;;;2.10
68440;BMP180;55421;51.600;5.718;2022-12-07T08:13:58;223342.20;;;2.14
68440;BMP180;55421;51.600;5.718;2022-12-07T08:16:24;219515.41;;;2.20
68440;BMP180;55421;51.600;5.718;2022-12-07T08:18:51;219025.59;;;2.22
68440;BMP180;55421;51.600;5.718;2022-12-07T08:21:17;221233.59;;;2.30
68440;BMP180;55421;51.600;5.718;2022-12-07T08:23:44;222265.59;;;2.30
68440;BMP180;55421;51.600;5.718;2022-12-07T08:26:14;228770.20;;;2.30
68440;BMP180;55421;51.600;5.718;2022-12-07T08:28:42;224274.00;;;2.30
68440;BMP180;55421;51.600;5.718;2022-12-07T08:31:16;222665.59;;;2.40
68440;BMP180;55421;51.600;5.718;2022-12-07T08:33:46;222829.80;;;2.40
68440;BMP180;55421;51.600;5.718;2022-12-07T08:36:13;225238.41;;;2.50
68440;BMP180;55421;51.600;5.718;2022-12-07T08:38:41;228236.20;;;2.50
68440;BMP180;55421;51.600;5.718;2022-12-07T08:41:08;229183.41;;;2.60
68440;BMP180;55421;51.600;5.718;2022-12-07T08:43:35;229755.80;;;2.62
68440;BMP180;55421;51.600;5.718;2022-12-07T08:49:01;231179.20;;;2.80
68440;BMP180;55421;51.600;5.718;2022-12-07T08:51:29;231882.59;;;2.80
68440;BMP180;55421;51.600;5.718;2022-12-07T08:53:58;232523.80;;;2.90
68440;BMP180;55421;51.600;5.718;2022-12-07T08:56:26;186604.20;;;2.90
68440;BMP180;55421;51.600;5.718;2022-12-07T08:58:53;188183.20;;;2.90
68440;BMP180;55421;51.600;5.718;2022-12-07T09:01:20;230878.80;;;2.94
68440;BMP180;55421;51.600;5.718;2022-12-07T09:03:46;188392.80;;;3.00
68440;BMP180;55421;51.600;5.718;2022-12-07T09:06:13;225941.20;;;3.02
68440;BMP180;55421;51.600;5.718;2022-12-07T09:08:46;224199.41;;;3.10
68440;BMP180;55421;51.600;5.718;2022-12-07T09:11:13;230570.20;;;3.20
68440;BMP180;55421;51.600;5.718;2022-12-07T09:13:39;186410.20;;;3.20
68440;BMP180;55421;51.600;5.718;2022-12-07T09:16:06;143186.20;;;3.20
68440;BMP180;55421;51.600;5.718;2022-12-07T09:18:33;185846.00;;;3.20
68440;BMP180;55421;51.600;5.718;2022-12-07T09:21:00;232616.80;;;3.20
68440;BMP180;55421;51.600;5.718;2022-12-07T09:23:26;186791.41;;;3.26
68440;BMP180;55421;51.600;5.718;2022-12-07T09:25:53;98541.40;;;3.30
68440;BMP180;55421;51.600;5.718;2022-12-07T09:28:19;10307.60;;;3.46
68440;BMP180;55421;51.600;5.718;2022-12-07T09:30:49;144276.80;;;3.50
68440;BMP180;55421;51.600;5.718;2022-12-07T09:33:15;142748.41;;;3.56
68440;BMP180;55421;51.600;5.718;2022-12-07T09:35:49;144858.41;;;3.52
68440;BMP180;55421;51.600;5.718;2022-12-07T09:38:18;146622.20;;;3.50
68440;BMP180;55421;51.600;5.718;2022-12-07T09:40:46;188407.20;;;3.50
68440;BMP180;55421;51.600;5.718;2022-12-07T09:43:17;144061.80;;;3.52
68440;BMP180;55421;51.600;5.718;2022-12-07T09:45:47;143734.20;;;3.60
68440;BMP180;55421;51.600;5.718;2022-12-07T09:48:29;144640.59;;;3.70
68440;BMP180;55421;51.600;5.718;2022-12-07T09:50:59;8573.80;;;3.80
68440;BMP180;55421;51.600;5.718;2022-12-07T09:53:36;12839.20;;;3.80
68440;BMP180;55421;51.600;5.718;2022-12-07T09:56:05;100438.40;;;3.80
68440;BMP180;55421;51.600;5.718;2022-12-07T09:58:33;98723.60;;;3.90
68440;BMP180;55421;51.600;5.718;2022-12-07T10:01:12;191153.59;;;3.90
68440;BMP180;55421;51.600;5.718;2022-12-07T10:03:50;142017.20;;;3.90
68440;BMP180;55421;51.600;5.718;2022-12-07T10:06:17;8945.40;;;4.00
68440;BMP180;55421;51.600;5.718;2022-12-07T10:08:44;16810.00;;;4.04
68440;BMP180;55421;51.600;5.718;2022-12-07T10:11:11;101094.80;;;4.20
68440;BMP180;55421;51.600;5.718;2022-12-07T10:18:52;144845.80;;;4.40
68440;BMP180;55421;51.600;5.718;2022-12-07T10:21:25;189056.20;;;4.40
68440;BMP180;55421;51.600;5.718;2022-12-07T10:29:19;235026.20;;;4.60
68440;BMP180;55421;51.600;5.718;2022-12-07T10:32:03;232756.41;;;4.70
68440;BMP180;55421;51.600;5.718;2022-12-07T10:34:36;231112.00;;;4.90
68440;BMP180;55421;51.600;5.718;2022-12-07T10:39:52;100070.20;;;5.10
68440;BMP180;55421;51.600;5.718;2022-12-07T10:42:29;190515.80;;;5.20
68440;BMP180;55421;51.600;5.718;2022-12-07T10:45:17;146688.41;;;5.40
68440;BMP180;55421;51.600;5.718;2022-12-07T10:51:19;28912.40;;;5.60
68440;BMP180;55421;51.600;5.718;2022-12-07T10:56:55;59735.00;;;5.60
68440;BMP180;55421;51.600;5.718;2022-12-07T10:59:53;13182.80;;;5.60
68440;BMP180;55421;51.600;5.718;2022-12-07T11:05:39;12447.60;;;5.60
68440;BMP180;55421;51.600;5.718;2022-12-07T11:08:27;100637.00;;;5.60
68440;BMP180;55421;51.600;5.718;2022-12-07T11:11:09;143736.20;;;5.60
68440;BMP180;55421;51.600;5.718;2022-12-07T11:16:56;144435.41;;;5.54
68440;BMP180;55421;51.600;5.718;2022-12-07T11:19:46;229845.59;;;5.50
68440;BMP180;55421;51.600;5.718;2022-12-07T11:22:36;222401.80;;;5.50
68440;BMP180;55421;51.600;5.718;2022-12-07T11:25:39;227527.00;;;5.50
68440;BMP180;55421;51.600;5.718;2022-12-07T11:31:55;143065.59;;;5.50
68440;BMP180;55421;51.600;5.718;2022-12-07T11:37:27;227149.00;;;5.40
68440;BMP180;55421;51.600;5.718;2022-12-07T11:40:03;219701.00;;;5.40
68440;BMP180;55421;51.600;5.718;2022-12-07T11:42:41;219289.20;;;5.40
68440;BMP180;55421;51.600;5.718;2022-12-07T11:45:26;218461.20;;;5.44
68440;BMP180;55421;51.600;5.718;2022-12-07T11:48:24;219048.00;;;5.50
68440;BMP180;55421;51.600;5.718;2022-12-07T11:50:55;219109.80;;;5.50
68440;BMP180;55421;51.600;5.718;2022-12-07T11:53:36;219307.20;;;5.50
68440;BMP180;55421;51.600;5.718;2022-12-07T11:56:17;218390.20;;;5.40
68440;BMP180;55421;51.600;5.718;2022-12-07T11:58:55;219184.41;;;5.40
68440;BMP180;55421;51.600;5.718;2022-12-07T12:06:42;218516.20;;;5.40
68440;BMP180;55421;51.600;5.718;2022-12-07T12:09:17;218170.59;;;5.40
68440;BMP180;55421;51.600;5.718;2022-12-07T12:15:00;218413.80;;;5.50
68440;BMP180;55421;51.600;5.718;2022-12-07T12:20:43;218885.59;;;5.60
68440;BMP180;55421;51.600;5.718;2022-12-07T12:23:37;218474.00;;;5.64
68440;BMP180;55421;51.600;5.718;2022-12-07T12:26:08;219725.00;;;5.80
68440;BMP180;55421;51.600;5.718;2022-12-07T12:34:03;221208.59;;;6.10
68440;BMP180;55421;51.600;5.718;2022-12-07T12:39:16;225791.20;;;6.10
68440;BMP180;55421;51.600;5.718;2022-12-07T12:51:59;225323.20;;;6.00
68440;BMP180;55421;51.600;5.718;2022-12-07T12:54:33;223804.59;;;5.92
68440;BMP180;55421;51.600;5.718;2022-12-07T12:57:32;222510.59;;;5.90
68440;BMP180;55421;51.600;5.718;2022-12-07T13:00:20;222749.80;;;5.80
68440;BMP180;55421;51.600;5.718;2022-12-07T13:02:53;222272.59;;;5.80
68440;BMP180;55421;51.600;5.718;2022-12-07T13:05:28;221341.80;;;5.80
68440;BMP180;55421;51.600;5.718;2022-12-07T13:26:36;220466.59;;;5.70
68440;BMP180;55421;51.600;5.718;2022-12-07T13:29:20;220375.80;;;5.70
68440;BMP180;55421;51.600;5.718;2022-12-07T13:31:57;219923.59;;;5.60
68440;BMP180;55421;51.600;5.718;2022-12-07T13:34:36;219244.41;;;5.50
68440;BMP180;55421;51.600;5.718;2022-12-07T13:37:24;220058.41;;;5.48
68440;BMP180;55421;51.600;5.718;2022-12-07T13:40:01;220225.00;;;5.40
68440;BMP180;55421;51.600;5.718;2022-12-07T13:42:38;220741.20;;;5.40
68440;BMP180;55421;51.600;5.718;2022-12-07T13:45:25;221382.80;;;5.30
68440;BMP180;55421;51.600;5.718;2022-12-07T13:48:41;220110.41;;;5.26
68440;BMP180;55421;51.600;5.718;2022-12-07T13:51:23;219459.00;;;5.20
68440;BMP180;55421;51.600;5.718;2022-12-07T13:54:09;218855.41;;;5.10
68440;BMP180;55421;51.600;5.718;2022-12-07T13:56:36;218493.00;;;5.00
68440;BMP180;55421;51.600;5.718;2022-12-07T13:59:20;218454.20;;;5.00
68440;BMP180;55421;51.600;5.718;2022-12-07T14:01:51;218452.59;;;4.94
68440;BMP180;55421;51.600;5.718;2022-12-07T14:04:32;218020.20;;;4.98
68440;BMP180;55421;51.600;5.718;2022-12-07T14:07:01;218131.00;;;5.00
68440;BMP180;55421;51.600;5.718;2022-12-07T14:09:58;218913.00;;;5.08
68440;BMP180;55421;51.600;5.718;2022-12-07T14:12:26;218840.00;;;5.10
68440;BMP180;55421;51.600;5.718;2022-12-07T14:14:53;218646.20;;;5.10
68440;BMP180;55421;51.600;5.718;2022-12-07T14:17:24;218188.41;;;5.12
68440;BMP180;55421;51.600;5.718;2022-12-07T14:20:02;217795.41;;;5.18
68440;BMP180;55421;51.600;5.718;2022-12-07T14:22:37;217571.41;;;5.20
68440;BMP180;55421;51.600;5.718;2022-12-07T14:27:50;217336.20;;;5.18
68440;BMP180;55421;51.600;5.718;2022-12-07T14:30:18;217414.20;;;5.20
68440;BMP180;55421;51.600;5.718;2022-12-07T14:32:48;217420.41;;;5.20
68440;BMP180;55421;51.600;5.718;2022-12-07T14:35:18;217563.20;;;5.30
68440;BMP180;55421;51.600;5.718;2022-12-07T14:37:48;217477.41;;;5.30
68440;BMP180;55421;51.600;5.718;2022-12-07T14:40:27;217525.41;;;5.30
68440;BMP180;55421;51.600;5.718;2022-12-07T14:43:00;217598.59;;;5.30
68440;BMP180;55421;51.600;5.718;2022-12-07T14:45:28;217532.80;;;5.30
68440;BMP180;55421;51.600;5.718;2022-12-07T14:47:55;217376.00;;;5.30
68440;BMP180;55421;51.600;5.718;2022-12-07T14:50:22;217360.41;;;5.20
68440;BMP180;55421;51.600;5.718;2022-12-07T14:52:58;217356.80;;;5.20
68440;BMP180;55421;51.600;5.718;2022-12-07T14:55:30;217366.80;;;5.10
68440;BMP180;55421;51.600;5.718;2022-12-07T14:57:57;217216.20;;;5.00
68440;BMP180;55421;51.600;5.718;2022-12-07T15:00:27;217139.00;;;4.88
68440;BMP180;55421;51.600;5.718;2022-12-07T15:02:54;217105.41;;;4.80
68440;BMP180;55421;51.600;5.718;2022-12-07T15:05:21;217085.00;;;4.72
68440;BMP180;55421;51.600;5.718;2022-12-07T15:07:49;217059.41;;;4.70
68440;BMP180;55421;51.600;5.718;2022-12-07T15:10:30;217042.00;;;4.70
68440;BMP180;55421;51.600;5.718;2022-12-07T15:12:59;217008.80;;;4.60
68440;BMP180;55421;51.600;5.718;2022-12-07T15:15:47;216964.80;;;4.52
68440;BMP180;55421;51.600;5.718;2022-12-07T15:18:15;216936.00;;;4.50
68440;BMP180;55421;51.600;5.718;2022-12-07T15:20:42;216914.80;;;4.46
68440;BMP180;55421;51.600;5.718;2022-12-07T15:23:10;216889.59;;;4.40
68440;BMP180;55421;51.600;5.718;2022-12-07T15:25:41;216883.20;;;4.40
68440;BMP180;55421;51.600;5.718;2022-12-07T15:28:08;216883.20;;;4.40
68440;BMP180;55421;51.600;5.718;2022-12-07T15:30:37;216889.59;;;4.40
68440;BMP180;55421;51.600;5.718;2022-12-07T15:33:04;216888.00;;;4.40
68440;BMP180;55421;51.600;5.718;2022-12-07T15:35:31;216892.20;;;4.40
68440;BMP180;55421;51.600;5.718;2022-12-07T15:37:57;216880.41;;;4.40
68440;BMP180;55421;51.600;5.718;2022-12-07T15:40:24;216864.41;;;4.40
68440;BMP180;55421;51.600;5.718;2022-12-07T15:42:50;216836.41;;;4.30
68440;BMP180;55421;51.600;5.718;2022-12-07T15:45:17;216812.41;;;4.30
68440;BMP180;55421;51.600;5.718;2022-12-07T15:47:44;216742.20;;;4.12
68440;BMP180;55421;51.600;5.718;2022-12-07T15:50:16;216736.59;;;4.10
68440;BMP180;55421;51.600;5.718;2022-12-07T15:52:43;216739.41;;;4.10
68440;BMP180;55421;51.600;5.718;2022-12-07T15:55:09;216743.80;;;4.16
68440;BMP180;55421;51.600;5.718;2022-12-07T15:57:39;216756.80;;;4.20
68440;BMP180;55421;51.600;5.718;2022-12-07T16:00:08;216766.59;;;4.20
68440;BMP180;55421;51.600;5.718;2022-12-07T16:02:36;216758.41;;;4.20
68440;BMP180;55421;51.600;5.718;2022-12-07T16:05:04;216753.80;;;4.20
68440;BMP180;55421;51.600;5.718;2022-12-07T16:07:30;216752.20;;;4.14
68440;BMP180;55421;51.600;5.718;2022-12-07T16:09:57;216747.80;;;4.20
68440;BMP180;55421;51.600;5.718;2022-12-07T16:12:23;216765.20;;;4.20
68440;BMP180;55421;51.600;5.718;2022-12-07T16:14:51;216784.80;;;4.20
68440;BMP180;55421;51.600;5.718;2022-12-07T16:17:18;216769.20;;;4.20
68440;BMP180;55421;51.600;5.718;2022-12-07T16:19:44;216755.20;;;4.20
68440;BMP180;55421;51.600;5.718;2022-12-07T16:22:11;216731.41;;;4.10
68440;BMP180;55421;51.600;5.718;2022-12-07T16:24:37;216711.00;;;4.10